createdAt,value
2022-09-21T00:02:04.976Z,29.96
2022-09-21T00:04:34.654Z,29.92
2022-09-21T00:07:03.894Z,30.01
2022-09-21T00:09:34.083Z,29.97
2022-09-21T00:12:03.999Z,29.95
2022-09-21T00:14:33.853Z,29.90
2022-09-21T00:17:03.745Z,29.88
2022-09-21T00:19:33.295Z,29.89
2022-09-21T00:22:03.371Z,29.92
2022-09-21T00:24:33.362Z,29.76
2022-09-21T00:27:02.913Z,29.73
2022-09-21T00:29:32.955Z,29.75
2022-09-21T00:32:02.923Z,29.79
2022-09-21T00:34:33.493Z,29.75
2022-09-21T00:37:03.162Z,29.84
2022-09-21T00:39:33.168Z,29.78
2022-09-21T00:42:03.404Z,29.79
2022-09-21T00:44:35.038Z,29.90
2022-09-21T00:47:12.085Z,29.99
2022-09-21T00:49:44.752Z,29.93
2022-09-21T00:52:18.781Z,29.97
2022-09-21T00:54:54.392Z,30.14
2022-09-21T00:57:28.802Z,30.09
2022-09-21T01:00:02.739Z,30.03
2022-09-21T01:02:36.810Z,29.99
2022-09-21T01:05:11.473Z,29.99
2022-09-21T01:07:47.263Z,30.02
2022-09-21T01:10:22.561Z,29.98
2022-09-21T01:13:16.529Z,29.92
2022-09-21T01:16:11.974Z,29.94
2022-09-21T01:19:01.211Z,30.06
2022-09-21T01:22:01.379Z,30.10
2022-09-21T01:25:10.513Z,30.14
2022-09-21T01:28:04.309Z,30.18
2022-09-21T01:30:39.864Z,30.16
2022-09-21T01:33:44.395Z,30.31
2022-09-21T01:36:23.393Z,30.30
2022-09-21T01:39:00.315Z,30.27
2022-09-21T01:41:33.679Z,30.30
2022-09-21T01:44:13.806Z,30.38
2022-09-21T01:46:45.491Z,30.33
2022-09-21T01:49:20.452Z,30.44
2022-09-21T01:51:59.265Z,30.59
2022-09-21T01:54:59.601Z,30.62
2022-09-21T01:57:35.015Z,30.56
2022-09-21T02:00:08.711Z,30.50
2022-09-21T02:02:56.454Z,30.62
2022-09-21T02:05:30.115Z,30.75
2022-09-21T02:08:01.680Z,30.69
2022-09-21T02:10:38.081Z,30.77
2022-09-21T02:13:10.816Z,30.80
2022-09-21T02:15:50.675Z,30.98
2022-09-21T02:18:48.803Z,31.02
2022-09-21T02:21:37.027Z,31.02
2022-09-21T02:24:17.292Z,31.07
2022-09-21T02:26:55.458Z,31.23
2022-09-21T02:29:35.714Z,31.30
2022-09-21T02:32:36.795Z,31.36
2022-09-21T02:35:18.795Z,31.48
2022-09-21T02:38:22.980Z,31.57
2022-09-21T02:40:57.666Z,31.56
2022-09-21T02:43:38.813Z,31.46
2022-09-21T02:46:18.206Z,31.52
2022-09-21T02:48:56.377Z,31.63
2022-09-21T02:51:35.018Z,31.64
2022-09-21T02:54:10.460Z,31.69
2022-09-21T02:56:44.698Z,31.80
2022-09-21T02:59:18.825Z,31.68
2022-09-21T03:01:51.067Z,31.76
2022-09-21T03:04:22.695Z,31.83
2022-09-21T03:06:55.218Z,31.84
2022-09-21T03:09:27.527Z,31.78
2022-09-21T03:11:57.852Z,32.16
2022-09-21T03:14:29.450Z,32.08
2022-09-21T03:17:00.410Z,32.13
2022-09-21T03:19:32.276Z,32.10
2022-09-21T03:22:02.989Z,32.24
2022-09-21T03:24:48.455Z,32.28
2022-09-21T03:27:22.906Z,32.39
2022-09-21T03:29:52.784Z,32.48
2022-09-21T03:32:24.536Z,32.57
2022-09-21T03:34:56.820Z,32.69
2022-09-21T03:37:28.304Z,32.62
2022-09-21T03:40:00.202Z,32.69
2022-09-21T03:42:31.739Z,32.72
2022-09-21T03:45:03.485Z,32.81
2022-09-21T03:47:35.404Z,32.78
2022-09-21T03:50:10.013Z,33.00
2022-09-21T03:52:41.921Z,32.90
2022-09-21T03:55:13.867Z,33.18
2022-09-21T03:57:44.802Z,33.13
2022-09-21T04:00:15.736Z,33.17
2022-09-21T04:02:47.521Z,33.39
2022-09-21T04:05:20.043Z,33.52
2022-09-21T04:07:51.977Z,33.28
2022-09-21T04:10:29.662Z,33.16
2022-09-21T04:13:04.496Z,33.25
2022-09-21T04:15:37.526Z,33.65
2022-09-21T04:18:09.163Z,33.61
2022-09-21T04:20:44.685Z,33.42
2022-09-21T04:23:15.710Z,33.34
2022-09-21T04:25:55.413Z,33.79
2022-09-21T04:28:26.305Z,33.63
2022-09-21T04:30:56.885Z,33.84
2022-09-21T04:33:29.963Z,33.83
2022-09-21T04:36:00.788Z,33.85
2022-09-21T04:38:34.598Z,33.97
2022-09-21T04:41:07.673Z,33.89
2022-09-21T04:43:37.680Z,34.26
2022-09-21T04:46:13.884Z,34.21
2022-09-21T04:48:45.660Z,34.14
2022-09-21T04:51:18.227Z,34.24
2022-09-21T04:53:51.905Z,34.28
2022-09-21T04:56:22.476Z,34.44
2022-09-21T04:58:53.211Z,34.18
2022-09-21T05:01:24.682Z,33.81
2022-09-21T05:03:57.709Z,34.13
2022-09-21T05:06:29.279Z,34.53
2022-09-21T05:09:19.122Z,34.46
2022-09-21T05:11:49.793Z,34.17
2022-09-21T05:14:21.211Z,34.45
2022-09-21T05:16:51.125Z,34.17
2022-09-21T05:19:22.388Z,34.21
2022-09-21T05:21:52.716Z,34.26
2022-09-21T05:24:24.518Z,34.50
2022-09-21T05:26:55.845Z,34.57
2022-09-21T05:29:26.471Z,34.58
2022-09-21T05:32:04.454Z,34.74
2022-09-21T05:34:59.103Z,34.76
2022-09-21T05:37:51.303Z,35.11
2022-09-21T05:40:23.668Z,34.77
2022-09-21T05:42:55.000Z,34.68
2022-09-21T05:45:27.905Z,34.63
2022-09-21T05:48:18.525Z,35.09
2022-09-21T05:51:09.467Z,35.12
2022-09-21T05:53:57.257Z,34.88
2022-09-21T05:56:38.688Z,34.57
2022-09-21T05:59:31.049Z,35.00
2022-09-21T06:02:22.947Z,35.04
2022-09-21T06:04:56.001Z,35.31
2022-09-21T06:07:39.218Z,35.53
2022-09-21T06:10:14.715Z,35.87
2022-09-21T06:12:47.505Z,36.06
2022-09-21T06:15:19.375Z,35.82
2022-09-21T06:17:53.149Z,36.24
2022-09-21T06:20:32.963Z,35.68
2022-09-21T06:23:12.052Z,35.19
2022-09-21T06:25:55.933Z,35.84
2022-09-21T06:28:30.422Z,35.57
2022-09-21T06:31:08.223Z,36.01
2022-09-21T06:33:40.077Z,36.29
2022-09-21T06:36:20.711Z,36.60
2022-09-21T06:38:55.430Z,36.53
2022-09-21T06:41:37.761Z,35.96
2022-09-21T06:44:22.408Z,35.69
2022-09-21T06:46:54.874Z,35.09
2022-09-21T06:49:39.192Z,35.30
2022-09-21T06:52:14.586Z,35.51
2022-09-21T06:54:44.921Z,34.67
2022-09-21T06:57:15.663Z,34.69
2022-09-21T06:59:45.677Z,34.76
2022-09-21T07:02:19.300Z,34.35
2022-09-21T07:04:49.763Z,34.25
2022-09-21T07:07:19.298Z,34.37
2022-09-21T07:10:06.711Z,34.25
2022-09-21T07:12:37.563Z,33.66
2022-09-21T07:15:09.550Z,33.55
2022-09-21T07:17:41.184Z,33.63
2022-09-21T07:20:11.448Z,33.86
2022-09-21T07:22:41.241Z,34.02
2022-09-21T07:25:11.999Z,34.09
2022-09-21T07:27:42.650Z,33.90
2022-09-21T07:30:13.154Z,33.73
2022-09-21T07:32:43.487Z,34.02
2022-09-21T07:35:13.489Z,34.03
2022-09-21T07:37:45.165Z,33.92
2022-09-21T07:40:15.050Z,33.35
2022-09-21T07:42:46.215Z,32.95
2022-09-21T07:45:15.856Z,33.22
2022-09-21T07:47:45.468Z,33.32
2022-09-21T07:50:15.968Z,33.16
2022-09-21T07:53:08.300Z,32.67
2022-09-21T07:55:44.322Z,33.06
2022-09-21T07:58:33.257Z,33.19
2022-09-21T08:01:08.240Z,33.19
2022-09-21T08:03:38.276Z,32.73
2022-09-21T08:06:08.621Z,33.15
2022-09-21T08:08:39.209Z,33.06
2022-09-21T08:11:10.748Z,33.19
2022-09-21T08:13:41.460Z,33.01
2022-09-21T08:16:13.150Z,33.08
2022-09-21T08:18:44.602Z,33.20
2022-09-21T08:21:16.277Z,33.30
2022-09-21T08:23:46.140Z,33.19
2022-09-21T08:26:20.314Z,33.13
2022-09-21T08:28:53.204Z,32.97
2022-09-21T08:31:25.576Z,32.86
2022-09-21T08:33:57.019Z,33.12
2022-09-21T08:36:27.112Z,33.26
2022-09-21T08:38:58.001Z,33.21
2022-09-21T08:42:09.738Z,33.31
2022-09-21T08:44:46.065Z,33.44
2022-09-21T08:47:22.423Z,33.65
2022-09-21T08:49:58.956Z,33.58
2022-09-21T08:52:29.222Z,33.58
2022-09-21T08:55:33.737Z,33.70
2022-09-21T08:58:04.814Z,33.56
2022-09-21T09:00:40.587Z,33.67
2022-09-21T09:03:35.899Z,33.64
2022-09-21T09:06:15.405Z,33.73
2022-09-21T09:09:29.336Z,33.75
2022-09-21T09:12:24.124Z,33.92
2022-09-21T09:15:06.604Z,33.84
2022-09-21T09:17:51.639Z,34.11
2022-09-21T09:20:24.300Z,33.89
2022-09-21T09:23:23.021Z,34.24
2022-09-21T09:25:58.704Z,34.18
2022-09-21T09:28:37.704Z,34.15
2022-09-21T09:31:18.862Z,34.29
2022-09-21T09:33:52.706Z,33.92
2022-09-21T09:36:34.978Z,34.01
2022-09-21T09:39:17.852Z,34.00
2022-09-21T09:42:23.792Z,34.23
2022-09-21T09:45:26.801Z,34.37
2022-09-21T09:48:03.891Z,34.08
2022-09-21T09:50:41.708Z,34.19
2022-09-21T09:53:22.317Z,34.34
2022-09-21T09:55:57.978Z,34.37
2022-09-21T09:58:51.375Z,34.35
2022-09-21T10:02:04.318Z,34.06
2022-09-21T10:04:36.255Z,34.06
2022-09-21T10:07:06.398Z,33.85
2022-09-21T10:09:37.138Z,33.98
2022-09-21T10:12:26.288Z,34.14
2022-09-21T10:15:02.345Z,34.19
2022-09-21T10:17:32.438Z,34.14
2022-09-21T10:20:04.095Z,34.32
2022-09-21T10:22:34.574Z,34.41
2022-09-21T10:25:07.259Z,34.44
2022-09-21T10:27:38.102Z,34.81
2022-09-21T10:30:28.462Z,34.68
2022-09-21T10:33:01.699Z,34.74
2022-09-21T10:35:33.255Z,34.66
2022-09-21T10:38:22.469Z,34.88
2022-09-21T10:40:52.899Z,34.39
2022-09-21T10:43:44.122Z,34.63
2022-09-21T10:46:14.491Z,34.55
2022-09-21T10:48:48.109Z,34.53
2022-09-21T10:51:32.738Z,34.56
2022-09-21T10:54:03.004Z,34.21
2022-09-21T10:56:33.479Z,34.31
2022-09-21T10:59:25.964Z,34.48
2022-09-21T11:01:59.233Z,34.33
2022-09-21T11:04:47.731Z,34.46
2022-09-21T11:07:23.673Z,34.42
2022-09-21T11:09:56.794Z,34.37
2022-09-21T11:12:59.874Z,34.39
2022-09-21T11:15:57.953Z,34.38
2022-09-21T11:19:08.454Z,34.35
2022-09-21T11:22:02.248Z,34.27
2022-09-21T11:24:56.505Z,34.31
2022-09-21T11:27:43.470Z,34.20
2022-09-21T11:30:22.125Z,34.07
2022-09-21T11:33:35.647Z,34.26
2022-09-21T11:36:24.651Z,34.16
2022-09-21T11:39:27.743Z,34.18
2022-09-21T11:42:29.311Z,34.18
2022-09-21T11:45:04.974Z,33.97
2022-09-21T11:47:49.833Z,33.98
2022-09-21T11:50:46.483Z,34.07
2022-09-21T11:54:18.811Z,34.02
2022-09-21T11:57:25.664Z,33.85
2022-09-21T12:00:17.436Z,33.86
2022-09-21T12:03:28.631Z,33.97
2022-09-21T12:06:22.754Z,33.98
2022-09-21T12:08:55.149Z,33.66
2022-09-21T12:11:28.043Z,33.85
2022-09-21T12:14:35.726Z,33.89
2022-09-21T12:17:41.263Z,33.64
2022-09-21T12:20:25.791Z,33.62
2022-09-21T12:23:03.838Z,33.60
2022-09-21T12:25:43.116Z,33.57
2022-09-21T12:28:15.725Z,33.45
2022-09-21T12:30:51.159Z,33.39
2022-09-21T12:33:47.053Z,33.42
2022-09-21T12:36:24.618Z,33.40
2022-09-21T12:39:09.376Z,33.33
2022-09-21T12:41:58.386Z,33.33
2022-09-21T12:44:53.155Z,33.29
2022-09-21T12:47:29.500Z,33.07
2022-09-21T12:50:06.519Z,33.13
2022-09-21T12:52:39.001Z,33.07
2022-09-21T12:55:22.107Z,33.13
2022-09-21T12:58:16.330Z,33.17
2022-09-21T13:01:07.729Z,33.04
2022-09-21T13:03:57.708Z,33.06
2022-09-21T13:06:28.265Z,32.83
2022-09-21T13:09:03.326Z,32.74
2022-09-21T13:11:36.479Z,32.77
2022-09-21T13:14:06.836Z,32.68
2022-09-21T13:16:41.061Z,32.71
2022-09-21T13:19:26.516Z,32.71
2022-09-21T13:22:34.920Z,32.62
2022-09-21T13:25:17.866Z,32.60
2022-09-21T13:28:05.273Z,32.52
2022-09-21T13:30:47.774Z,32.44
2022-09-21T13:33:21.795Z,32.37
2022-09-21T13:36:03.670Z,32.35
2022-09-21T13:38:42.163Z,32.34
2022-09-21T13:41:21.222Z,32.39
2022-09-21T13:44:05.106Z,32.43
2022-09-21T13:46:38.394Z,32.27
2022-09-21T13:49:16.921Z,32.30
2022-09-21T13:52:33.823Z,32.38
2022-09-21T13:55:13.690Z,32.27
2022-09-21T13:57:52.832Z,32.31
2022-09-21T14:00:34.618Z,32.30
2022-09-21T14:03:20.428Z,32.24
2022-09-21T14:05:55.190Z,32.24
2022-09-21T14:08:37.487Z,32.25
2022-09-21T14:11:11.895Z,32.18
2022-09-21T14:13:48.662Z,32.28
2022-09-21T14:16:38.435Z,32.39
2022-09-21T14:19:35.005Z,32.39
2022-09-21T14:22:10.730Z,32.36
2022-09-21T14:24:47.894Z,32.10
2022-09-21T14:27:29.340Z,32.28
2022-09-21T14:30:07.447Z,32.24
2022-09-21T14:32:48.548Z,32.20
2022-09-21T14:35:24.651Z,32.19
2022-09-21T14:37:57.762Z,32.13
2022-09-21T14:40:34.842Z,32.09
2022-09-21T14:43:13.699Z,32.10
2022-09-21T14:46:04.538Z,31.97
2022-09-21T14:48:57.746Z,32.20
2022-09-21T14:54:58.382Z,32.01
2022-09-21T14:57:40.069Z,31.79
2022-09-21T15:00:27.653Z,31.80
2022-09-21T15:03:20.411Z,31.68
2022-09-21T15:06:00.121Z,31.69
2022-09-21T15:09:05.223Z,31.62
2022-09-21T15:11:43.789Z,31.57
2022-09-21T15:14:22.469Z,31.61
2022-09-21T15:16:53.893Z,31.58
2022-09-21T15:19:29.192Z,31.60
2022-09-21T15:22:17.440Z,31.72
2022-09-21T15:24:55.314Z,31.64
2022-09-21T15:27:34.459Z,31.51
2022-09-21T15:30:07.835Z,31.43
2022-09-21T15:32:41.836Z,31.45
2022-09-21T15:35:29.159Z,31.53
2022-09-21T15:38:03.480Z,31.44
2022-09-21T15:40:38.381Z,31.55
2022-09-21T15:43:20.723Z,31.54
2022-09-21T15:46:00.525Z,31.46
2022-09-21T15:48:37.366Z,31.31
2022-09-21T15:51:32.022Z,31.12
2022-09-21T15:54:09.126Z,31.08
2022-09-21T15:56:42.019Z,31.03
2022-09-21T15:59:17.993Z,31.22
2022-09-21T16:01:52.849Z,31.13
2022-09-21T16:04:26.221Z,31.27
2022-09-21T16:07:17.659Z,31.32
2022-09-21T16:09:47.691Z,31.17
2022-09-21T16:12:41.948Z,31.21
2022-09-21T16:15:33.271Z,31.28
2022-09-21T16:18:28.259Z,31.26
2022-09-21T16:21:00.147Z,31.16
2022-09-21T16:23:31.683Z,31.23
2022-09-21T16:26:02.832Z,31.24
2022-09-21T16:28:42.367Z,31.01
2022-09-21T16:31:32.002Z,31.19
2022-09-21T16:34:20.230Z,31.17
2022-09-21T16:36:55.717Z,31.23
2022-09-21T16:39:24.893Z,30.98
2022-09-21T16:42:01.542Z,30.97
2022-09-21T16:44:41.107Z,30.77
2022-09-21T16:47:16.591Z,31.05
2022-09-21T16:49:47.287Z,30.95
2022-09-21T16:52:18.308Z,31.01
2022-09-21T16:54:48.578Z,30.93
2022-09-21T16:57:19.427Z,30.89
2022-09-21T16:59:50.640Z,30.93
2022-09-21T17:02:20.590Z,30.99
2022-09-21T17:04:50.311Z,30.93
2022-09-21T17:07:21.143Z,30.86
2022-09-21T17:09:50.842Z,30.80
2022-09-21T17:12:20.501Z,30.91
2022-09-21T17:14:51.058Z,30.65
2022-09-21T17:17:24.883Z,30.88
2022-09-21T17:19:55.110Z,30.79
2022-09-21T17:22:26.316Z,30.76
2022-09-21T17:24:56.047Z,30.73
2022-09-21T17:27:30.312Z,30.76
2022-09-21T17:30:04.585Z,30.80
2022-09-21T17:32:38.543Z,30.74
2022-09-21T17:35:37.097Z,30.78
2022-09-21T17:38:11.285Z,30.64
2022-09-21T17:40:44.363Z,30.71
2022-09-21T17:43:40.486Z,30.73
2022-09-21T17:46:29.025Z,30.86
2022-09-21T17:49:02.003Z,30.56
2022-09-21T17:51:49.939Z,30.57
2022-09-21T17:54:19.534Z,30.54
2022-09-21T17:57:02.276Z,30.56
2022-09-21T17:59:38.885Z,30.45
2022-09-21T18:02:24.594Z,30.35
2022-09-21T18:05:04.418Z,30.33
2022-09-21T18:07:33.761Z,30.34
2022-09-21T18:10:03.105Z,30.42
2022-09-21T18:12:41.290Z,30.28
2022-09-21T18:15:18.367Z,30.32
2022-09-21T18:18:08.947Z,30.37
2022-09-21T18:20:58.746Z,30.43
2022-09-21T18:24:05.128Z,30.36
2022-09-21T18:26:35.856Z,30.18
2022-09-21T18:29:28.613Z,30.18
2022-09-21T18:32:19.431Z,30.32
2022-09-21T18:35:29.257Z,30.34
2022-09-21T18:38:21.867Z,30.30
2022-09-21T18:41:32.820Z,30.32
2022-09-21T18:44:20.060Z,30.34
2022-09-21T18:47:05.869Z,30.36
2022-09-21T18:49:53.364Z,30.31
2022-09-21T18:52:37.452Z,29.94
2022-09-21T18:55:28.905Z,30.25
2022-09-21T18:57:59.684Z,30.03
2022-09-21T19:00:35.331Z,30.04
2022-09-21T19:03:17.729Z,30.06
2022-09-21T19:06:28.211Z,29.99
2022-09-21T19:09:00.571Z,29.75
2022-09-21T19:11:47.644Z,30.01
2022-09-21T19:14:55.668Z,29.98
2022-09-21T19:17:51.913Z,29.95
2022-09-21T19:20:37.067Z,29.96
2022-09-21T19:23:22.501Z,30.09
2022-09-21T19:26:04.069Z,29.94
2022-09-21T19:28:49.825Z,29.86
2022-09-21T19:31:20.599Z,29.57
2022-09-21T19:33:51.391Z,29.59
2022-09-21T19:36:22.308Z,29.76
2022-09-21T19:38:51.744Z,29.76
2022-09-21T19:41:59.370Z,29.81
2022-09-21T19:44:36.103Z,29.72
2022-09-21T19:47:21.668Z,29.88
2022-09-21T19:49:56.987Z,29.85
2022-09-21T19:52:34.080Z,29.86
2022-09-21T19:55:22.143Z,29.68
2022-09-21T19:58:09.877Z,29.63
2022-09-21T20:00:40.006Z,29.51
2022-09-21T20:03:21.400Z,29.77
2022-09-21T20:05:58.510Z,29.69
2022-09-21T20:08:41.795Z,29.73
2022-09-21T20:11:32.234Z,29.64
2022-09-21T20:14:15.883Z,29.68
2022-09-21T20:16:58.471Z,29.60
2022-09-21T20:19:27.107Z,29.90
2022-09-21T20:22:22.046Z,29.76
2022-09-21T20:24:59.169Z,29.56
2022-09-21T20:27:38.860Z,29.65
2022-09-21T20:30:11.371Z,29.69
2022-09-21T20:32:44.918Z,29.66
2022-09-21T20:35:21.230Z,29.63
2022-09-21T20:37:53.330Z,29.62
2022-09-21T20:40:27.749Z,29.63
2022-09-21T20:42:58.637Z,29.59
2022-09-21T20:45:27.896Z,29.57
2022-09-21T20:47:58.259Z,29.48
2022-09-21T20:50:28.403Z,29.46
2022-09-21T20:52:57.881Z,29.51
2022-09-21T20:55:26.602Z,29.41
2022-09-21T20:57:56.186Z,29.56
2022-09-21T21:00:25.293Z,29.35
2022-09-21T21:02:54.516Z,29.30
2022-09-21T21:05:23.482Z,29.31
2022-09-21T21:07:52.365Z,29.33
2022-09-21T21:10:22.978Z,29.19
2022-09-21T21:12:52.576Z,29.14
2022-09-21T21:15:21.424Z,29.15
2022-09-21T21:17:50.520Z,28.94
2022-09-21T21:20:19.562Z,28.99
2022-09-21T21:22:51.628Z,29.06
2022-09-21T21:25:20.723Z,28.97
2022-09-21T21:27:54.112Z,29.11
2022-09-21T21:30:25.175Z,29.00
2022-09-21T21:32:54.756Z,29.00
2022-09-21T21:35:23.739Z,28.85
2022-09-21T21:37:52.577Z,28.83
2022-09-21T21:40:29.878Z,28.74
2022-09-21T21:42:59.048Z,28.87
2022-09-21T21:45:28.028Z,28.81
2022-09-21T21:47:57.085Z,28.83
2022-09-21T21:50:26.695Z,28.86
2022-09-21T21:52:59.961Z,28.91
2022-09-21T21:55:29.300Z,28.68
2022-09-21T21:57:58.214Z,28.70
2022-09-21T22:00:27.613Z,28.82
2022-09-21T22:02:59.685Z,28.96
2022-09-21T22:05:28.971Z,28.85
2022-09-21T22:07:58.177Z,28.85
2022-09-21T22:10:27.674Z,28.87
2022-09-21T22:12:58.459Z,28.79
2022-09-21T22:15:27.540Z,29.03
2022-09-21T22:17:56.900Z,28.91
2022-09-21T22:20:25.772Z,28.90
2022-09-21T22:22:54.920Z,28.81
2022-09-21T22:25:24.073Z,28.96
2022-09-21T22:27:53.319Z,29.00
2022-09-21T22:30:22.865Z,28.84
2022-09-21T22:32:52.865Z,28.75
2022-09-21T22:35:22.158Z,28.79
2022-09-21T22:37:55.617Z,28.75
2022-09-21T22:40:24.601Z,28.73
2022-09-21T22:42:53.639Z,28.80
2022-09-21T22:45:22.702Z,28.59
2022-09-21T22:47:52.038Z,28.69
2022-09-21T22:50:21.108Z,28.91
2022-09-21T22:52:50.161Z,28.98
2022-09-21T22:55:19.062Z,29.04
2022-09-21T22:57:48.271Z,29.01
2022-09-21T23:00:17.431Z,28.74
2022-09-21T23:02:56.314Z,28.81
2022-09-21T23:05:25.345Z,28.76
2022-09-21T23:07:58.537Z,28.66
2022-09-21T23:10:28.262Z,28.79
2022-09-21T23:12:57.764Z,28.85
2022-09-21T23:15:26.648Z,28.82
2022-09-21T23:17:55.904Z,28.74
2022-09-21T23:20:24.971Z,28.74
2022-09-21T23:22:54.115Z,28.78
2022-09-21T23:25:23.537Z,28.75
2022-09-21T23:27:53.020Z,28.74
2022-09-21T23:30:22.041Z,28.70
2022-09-21T23:32:54.895Z,28.62
2022-09-21T23:35:24.167Z,28.48
2022-09-21T23:37:53.056Z,28.50
2022-09-21T23:40:22.304Z,28.57
2022-09-21T23:42:51.635Z,28.60
2022-09-21T23:45:20.590Z,28.60
2022-09-21T23:47:49.703Z,28.63
2022-09-21T23:50:18.968Z,28.51
2022-09-21T23:52:48.367Z,28.51
2022-09-21T23:55:17.215Z,28.41
2022-09-21T23:57:46.676Z,28.45
